createdAt,value
2022-07-31T00:00:19.170Z,101522.91
2022-07-31T00:02:46.638Z,101483.41
2022-07-31T00:05:13.071Z,101528.38
2022-07-31T00:07:39.832Z,101460.53
2022-07-31T00:10:07.478Z,101529.34
2022-07-31T00:12:37.209Z,101530.31
2022-07-31T00:15:08.361Z,101505.09
2022-07-31T00:17:34.768Z,101535.75
2022-07-31T00:20:01.938Z,101519.88
2022-07-31T00:22:28.441Z,101494.31
2022-07-31T00:24:54.909Z,101513.72
2022-07-31T00:27:21.482Z,101506.09
2022-07-31T00:29:47.931Z,101499.75
2022-07-31T00:32:14.340Z,101516.97
2022-07-31T00:34:42.346Z,101501.22
2022-07-31T00:37:09.972Z,101419.09
2022-07-31T00:39:36.461Z,101492.75
2022-07-31T00:42:03.044Z,101489.38
2022-07-31T00:44:29.709Z,101437.00
2022-07-31T00:46:57.862Z,101447.94
2022-07-31T00:49:24.547Z,101484.16
2022-07-31T00:51:51.781Z,101469.38
2022-07-31T00:54:22.319Z,101467.41
2022-07-31T00:56:49.338Z,101399.25
2022-07-31T00:59:15.864Z,101485.13
2022-07-31T01:01:44.338Z,101432.66
2022-07-31T01:04:15.462Z,101465.22
2022-07-31T01:06:42.761Z,101477.13
2022-07-31T01:09:09.401Z,101375.44
2022-07-31T01:11:48.149Z,101468.88
2022-07-31T01:14:19.778Z,101414.69
2022-07-31T01:16:49.719Z,101472.09
2022-07-31T01:19:37.899Z,101416.34
2022-07-31T01:22:33.654Z,101410.41
2022-07-31T01:25:23.252Z,101463.59
2022-07-31T01:27:52.575Z,101454.69
2022-07-31T01:30:24.797Z,101455.31
2022-07-31T01:32:57.921Z,101422.72
2022-07-31T01:35:28.363Z,101448.66
2022-07-31T01:38:09.984Z,101451.34
2022-07-31T01:40:44.835Z,101418.03
2022-07-31T01:43:22.322Z,101447.81
2022-07-31T01:45:56.213Z,101405.00
2022-07-31T01:48:23.675Z,101442.63
2022-07-31T01:50:52.640Z,101399.78
2022-07-31T01:53:22.706Z,101385.19
2022-07-31T01:56:02.086Z,101446.59
2022-07-31T01:58:34.872Z,101377.38
2022-07-31T02:01:03.834Z,101430.31
2022-07-31T02:03:43.921Z,101445.81
2022-07-31T02:06:14.862Z,101445.19
2022-07-31T02:08:43.789Z,101447.38
2022-07-31T02:11:10.769Z,101437.03
2022-07-31T02:13:38.000Z,101441.75
2022-07-31T02:16:05.648Z,101362.88
2022-07-31T02:18:33.968Z,101243.44
2022-07-31T02:21:00.798Z,101439.75
2022-07-31T02:23:27.220Z,101410.69
2022-07-31T02:25:54.432Z,101434.56
2022-07-31T02:28:22.477Z,101366.00
2022-07-31T02:30:51.684Z,101432.75
2022-07-31T02:33:21.972Z,101435.41
2022-07-31T02:35:50.315Z,101365.25
2022-07-31T02:38:23.322Z,101336.03
2022-07-31T02:40:57.806Z,101392.91
2022-07-31T02:43:26.590Z,101409.00
2022-07-31T02:45:54.553Z,101376.16
2022-07-31T02:48:21.576Z,101426.72
2022-07-31T02:50:49.160Z,101429.38
2022-07-31T02:53:15.635Z,101425.72
2022-07-31T02:55:44.797Z,101417.88
2022-07-31T02:58:11.415Z,101407.31
2022-07-31T03:00:38.006Z,101396.44
2022-07-31T03:03:04.507Z,101356.94
2022-07-31T03:05:31.351Z,101418.28
2022-07-31T03:07:57.740Z,101356.03
2022-07-31T03:10:24.118Z,101403.09
2022-07-31T03:12:54.281Z,101411.03
2022-07-31T03:15:23.560Z,101372.41
2022-07-31T03:17:51.151Z,101387.31
2022-07-31T03:20:18.281Z,101419.69
2022-07-31T03:22:45.699Z,101418.72
2022-07-31T03:25:20.065Z,101417.53
2022-07-31T03:27:55.885Z,101406.03
2022-07-31T03:30:25.156Z,101409.41
2022-07-31T03:32:58.027Z,101335.50
2022-07-31T03:35:24.888Z,101411.59
2022-07-31T03:37:52.189Z,101424.78
2022-07-31T03:40:18.958Z,101415.94
2022-07-31T03:42:47.537Z,101366.97
2022-07-31T03:45:14.724Z,101417.34
2022-07-31T03:47:41.161Z,101421.94
2022-07-31T03:50:08.792Z,101371.19
2022-07-31T03:52:35.991Z,101394.19
2022-07-31T03:55:02.867Z,101398.53
2022-07-31T03:57:31.431Z,101402.38
2022-07-31T04:00:02.484Z,101340.47
2022-07-31T04:02:29.921Z,101331.00
2022-07-31T04:04:58.511Z,101400.13
2022-07-31T04:07:25.096Z,101405.31
2022-07-31T04:09:51.856Z,101396.28
2022-07-31T04:12:18.323Z,101318.06
2022-07-31T04:14:45.114Z,101366.88
2022-07-31T04:17:11.487Z,101395.19
2022-07-31T04:19:38.017Z,101404.09
2022-07-31T04:22:04.952Z,101394.66
2022-07-31T04:24:31.636Z,101389.84
2022-07-31T04:26:58.421Z,101284.75
2022-07-31T04:29:28.564Z,101389.75
2022-07-31T04:31:55.670Z,101344.09
2022-07-31T04:34:22.206Z,101375.81
2022-07-31T04:36:48.710Z,101363.25
2022-07-31T04:39:15.130Z,101329.34
2022-07-31T04:41:41.527Z,101235.81
2022-07-31T04:44:07.932Z,101390.72
2022-07-31T04:46:34.268Z,101389.03
2022-07-31T04:49:00.738Z,101376.09
2022-07-31T04:51:27.165Z,101346.34
2022-07-31T04:53:53.624Z,101388.44
2022-07-31T04:56:42.086Z,101381.44
2022-07-31T04:59:13.737Z,101379.88
2022-07-31T05:01:41.408Z,101370.69
2022-07-31T05:04:09.202Z,101355.91
2022-07-31T05:06:38.436Z,101372.72
2022-07-31T05:09:09.500Z,101372.88
2022-07-31T05:11:37.985Z,101336.41
2022-07-31T05:14:06.237Z,101354.81
2022-07-31T05:16:32.987Z,101372.72
2022-07-31T05:18:59.790Z,101342.59
2022-07-31T05:21:30.537Z,101339.31
2022-07-31T05:23:57.679Z,101339.31
2022-07-31T05:26:24.776Z,101338.66
2022-07-31T05:28:58.400Z,101362.09
2022-07-31T05:31:26.096Z,101355.34
2022-07-31T05:33:52.512Z,101367.56
2022-07-31T05:36:20.885Z,101359.91
2022-07-31T05:38:47.671Z,101370.31
2022-07-31T05:41:14.195Z,101359.53
2022-07-31T05:43:40.609Z,101343.66
2022-07-31T05:46:07.438Z,101312.88
2022-07-31T05:48:33.870Z,101331.63
2022-07-31T05:51:05.093Z,101319.56
2022-07-31T05:53:32.041Z,101319.00
2022-07-31T05:55:58.382Z,101276.66
2022-07-31T05:58:24.807Z,101260.47
2022-07-31T06:00:51.300Z,101290.81
2022-07-31T06:03:24.088Z,101273.72
2022-07-31T06:05:51.935Z,101288.34
2022-07-31T06:08:18.305Z,101291.84
2022-07-31T06:10:45.082Z,101337.03
2022-07-31T06:13:12.358Z,101350.09
2022-07-31T06:15:39.141Z,101334.63
2022-07-31T06:18:09.019Z,101285.06
2022-07-31T06:20:35.513Z,101289.56
2022-07-31T06:23:20.007Z,101333.22
2022-07-31T06:25:52.510Z,101289.72
2022-07-31T06:28:19.071Z,101329.56
2022-07-31T06:30:46.612Z,101334.03
2022-07-31T06:33:21.998Z,101339.38
2022-07-31T06:35:59.385Z,101345.97
2022-07-31T06:38:25.830Z,101307.41
2022-07-31T06:40:52.190Z,101304.19
2022-07-31T06:43:18.621Z,101317.16
2022-07-31T06:45:52.074Z,101321.09
2022-07-31T06:48:18.920Z,101308.38
2022-07-31T06:50:45.412Z,101345.16
2022-07-31T06:53:11.846Z,101355.00
2022-07-31T06:55:38.209Z,101271.34
2022-07-31T06:58:10.612Z,101374.47
2022-07-31T07:00:37.273Z,101371.38
2022-07-31T07:03:03.681Z,101334.91
2022-07-31T07:05:30.176Z,101328.34
2022-07-31T07:07:56.561Z,101349.00
2022-07-31T07:10:23.008Z,101372.56
2022-07-31T07:12:49.487Z,101363.59
2022-07-31T07:15:15.938Z,101349.72
2022-07-31T07:17:42.308Z,101324.28
2022-07-31T07:20:09.132Z,101248.84
2022-07-31T07:22:35.509Z,101359.00
2022-07-31T07:25:02.002Z,101342.06
2022-07-31T07:27:28.458Z,101339.84
2022-07-31T07:29:55.724Z,101339.78
2022-07-31T07:32:22.082Z,101338.22
2022-07-31T07:34:48.586Z,101328.53
2022-07-31T07:37:27.283Z,101308.69
2022-07-31T07:39:53.681Z,101333.94
2022-07-31T07:42:20.135Z,101303.41
2022-07-31T07:44:46.610Z,101196.47
2022-07-31T07:47:13.370Z,101322.53
2022-07-31T07:49:39.729Z,101275.81
2022-07-31T07:52:06.302Z,101189.72
2022-07-31T07:54:32.714Z,101321.97
2022-07-31T07:56:59.348Z,101281.69
2022-07-31T07:59:25.773Z,101306.97
2022-07-31T08:01:52.144Z,101240.75
2022-07-31T08:04:18.685Z,101286.53
2022-07-31T08:06:45.102Z,101253.53
2022-07-31T08:09:11.550Z,101238.72
2022-07-31T08:11:37.914Z,101288.81
2022-07-31T08:14:04.324Z,101291.63
2022-07-31T08:16:32.438Z,101289.66
2022-07-31T08:18:58.870Z,101289.59
2022-07-31T08:21:25.326Z,101290.59
2022-07-31T08:23:52.708Z,101267.19
2022-07-31T08:26:19.221Z,101260.41
2022-07-31T08:28:50.328Z,101250.50
2022-07-31T08:31:19.178Z,101247.19
2022-07-31T08:33:45.753Z,101267.94
2022-07-31T08:36:12.517Z,101282.91
2022-07-31T08:38:39.385Z,101283.34
2022-07-31T08:41:06.217Z,101254.94
2022-07-31T08:44:02.254Z,101254.69
2022-07-31T08:46:21.105Z,101255.16
2022-07-31T08:48:50.630Z,101266.69
2022-07-31T08:51:17.626Z,101243.59
2022-07-31T08:53:44.709Z,101209.56
2022-07-31T08:56:11.829Z,101235.41
2022-07-31T08:58:39.847Z,101258.75
2022-07-31T09:01:08.102Z,101264.13
2022-07-31T09:03:36.010Z,101261.41
2022-07-31T09:06:02.543Z,101228.22
2022-07-31T09:08:35.972Z,101246.19
2022-07-31T09:11:07.605Z,101220.16
2022-07-31T09:13:34.815Z,101267.53
2022-07-31T09:16:02.128Z,101237.63
2022-07-31T09:18:28.585Z,101258.28
2022-07-31T09:21:00.417Z,101265.41
2022-07-31T09:23:29.110Z,101241.03
2022-07-31T09:26:05.951Z,101247.25
2022-07-31T09:28:44.934Z,101263.88
2022-07-31T09:31:13.766Z,101243.69
2022-07-31T09:33:45.814Z,101232.28
2022-07-31T09:36:13.194Z,101112.28
2022-07-31T09:38:43.221Z,101231.56
2022-07-31T09:41:26.786Z,101262.19
2022-07-31T09:44:00.975Z,101246.25
2022-07-31T09:46:37.939Z,101252.41
2022-07-31T09:49:04.442Z,101226.38
2022-07-31T09:51:42.050Z,101233.34
2022-07-31T09:54:18.969Z,101266.94
2022-07-31T09:56:46.842Z,101150.91
2022-07-31T09:59:13.414Z,101064.19
2022-07-31T10:01:41.274Z,101255.81
2022-07-31T10:04:08.547Z,101252.59
2022-07-31T10:06:35.698Z,101231.09
2022-07-31T10:09:04.849Z,101241.84
2022-07-31T10:11:32.297Z,101257.50
2022-07-31T10:14:03.797Z,101229.38
2022-07-31T10:16:35.698Z,101240.78
2022-07-31T10:19:03.745Z,101225.00
2022-07-31T10:21:37.810Z,101245.78
2022-07-31T10:24:05.442Z,101244.34
2022-07-31T10:26:58.691Z,101229.56
2022-07-31T10:29:19.692Z,101227.38
2022-07-31T10:31:46.336Z,101226.94
2022-07-31T10:34:15.817Z,101227.25
2022-07-31T10:36:45.279Z,101227.13
2022-07-31T10:39:35.662Z,101225.78
2022-07-31T10:42:19.467Z,101223.19
2022-07-31T10:45:02.883Z,101196.94
2022-07-31T10:47:29.435Z,101148.38
2022-07-31T10:49:55.866Z,101217.25
2022-07-31T10:52:34.533Z,101219.28
2022-07-31T10:55:01.815Z,101202.34
2022-07-31T10:57:33.763Z,101208.44
2022-07-31T11:00:21.168Z,101224.25
2022-07-31T11:02:47.701Z,101193.22
2022-07-31T11:05:21.658Z,101185.13
2022-07-31T11:07:59.656Z,101198.84
2022-07-31T11:10:26.193Z,101208.41
2022-07-31T11:13:04.867Z,101173.84
2022-07-31T11:15:31.707Z,101207.78
2022-07-31T11:18:24.057Z,101069.69
2022-07-31T11:20:48.494Z,101214.84
2022-07-31T11:23:16.791Z,101190.56
2022-07-31T11:25:46.895Z,101201.94
2022-07-31T11:28:27.329Z,101205.19
2022-07-31T11:31:02.546Z,101159.19
2022-07-31T11:33:42.081Z,101197.72
2022-07-31T11:36:09.411Z,101208.63
2022-07-31T11:38:36.702Z,101200.06
2022-07-31T11:41:05.897Z,101208.78
2022-07-31T11:43:34.439Z,101221.25
2022-07-31T11:46:02.511Z,101208.78
2022-07-31T11:48:38.049Z,101189.69
2022-07-31T11:51:06.019Z,101195.72
2022-07-31T11:53:39.721Z,101191.00
2022-07-31T11:56:06.214Z,101179.25
2022-07-31T11:58:33.719Z,101176.16
2022-07-31T12:01:02.005Z,101168.69
2022-07-31T12:03:36.524Z,101166.38
2022-07-31T12:06:05.894Z,101161.16
2022-07-31T12:08:32.979Z,101172.34
2022-07-31T12:11:01.376Z,101176.53
2022-07-31T12:13:29.362Z,101165.09
2022-07-31T12:15:55.679Z,101147.19
2022-07-31T12:18:22.382Z,101155.75
2022-07-31T12:20:54.121Z,101162.75
2022-07-31T12:23:40.439Z,101127.22
2022-07-31T12:26:07.054Z,101155.34
2022-07-31T12:28:33.416Z,101163.16
2022-07-31T12:31:00.279Z,101169.97
2022-07-31T12:33:27.664Z,101183.69
2022-07-31T12:35:57.061Z,101164.69
2022-07-31T12:38:47.555Z,101037.38
2022-07-31T12:41:14.488Z,101184.09
2022-07-31T12:43:51.050Z,101182.81
2022-07-31T12:46:34.743Z,101175.47
2022-07-31T12:49:01.198Z,101168.69
2022-07-31T12:51:45.181Z,101163.59
2022-07-31T12:54:16.942Z,101162.00
2022-07-31T12:56:44.793Z,101158.13
2022-07-31T12:59:11.720Z,101158.28
2022-07-31T13:01:38.363Z,101132.44
2022-07-31T13:04:07.627Z,101156.22
2022-07-31T13:06:34.912Z,101153.63
2022-07-31T13:09:01.290Z,101094.53
2022-07-31T13:11:30.590Z,101130.34
2022-07-31T13:14:13.514Z,101136.69
2022-07-31T13:16:39.890Z,101130.03
2022-07-31T13:19:07.857Z,101112.25
2022-07-31T13:21:48.350Z,101082.44
2022-07-31T13:24:17.628Z,101114.75
2022-07-31T13:26:45.253Z,101080.50
2022-07-31T13:29:12.142Z,101126.28
2022-07-31T13:31:39.137Z,100992.19
2022-07-31T13:34:05.694Z,101131.63
2022-07-31T13:36:36.001Z,101080.88
2022-07-31T13:39:05.494Z,101142.53
2022-07-31T13:41:34.109Z,101139.25
2022-07-31T13:44:01.074Z,101147.34
2022-07-31T13:46:28.240Z,101139.91
2022-07-31T13:48:56.273Z,101129.84
2022-07-31T13:51:28.717Z,101113.75
2022-07-31T13:53:55.767Z,101133.66
2022-07-31T13:56:39.300Z,101106.19
2022-07-31T13:59:08.782Z,101136.56
2022-07-31T14:02:04.574Z,101112.94
2022-07-31T14:04:23.623Z,101096.41
2022-07-31T14:06:50.581Z,101135.09
2022-07-31T14:09:18.281Z,101131.72
2022-07-31T14:11:44.685Z,101089.81
2022-07-31T14:14:12.389Z,101135.25
2022-07-31T14:16:39.527Z,101109.91
2022-07-31T14:19:05.953Z,101129.69
2022-07-31T14:21:34.013Z,101132.44
2022-07-31T14:24:00.480Z,101085.94
2022-07-31T14:26:26.910Z,101125.94
2022-07-31T14:28:53.326Z,101086.47
2022-07-31T14:31:19.799Z,101109.31
2022-07-31T14:33:46.257Z,101131.50
2022-07-31T14:36:12.675Z,101126.25
2022-07-31T14:38:39.062Z,101081.53
2022-07-31T14:41:07.023Z,101106.56
2022-07-31T14:43:33.621Z,101097.16
2022-07-31T14:46:00.021Z,101088.81
2022-07-31T14:48:27.272Z,101110.50
2022-07-31T14:50:53.728Z,101117.75
2022-07-31T14:53:20.132Z,101081.81
2022-07-31T14:55:46.514Z,101114.06
2022-07-31T14:58:12.938Z,101119.03
2022-07-31T15:00:39.364Z,101111.94
2022-07-31T15:03:05.788Z,101111.59
2022-07-31T15:06:41.288Z,101053.06
2022-07-31T15:08:18.537Z,101102.84
2022-07-31T15:10:44.926Z,101083.16
2022-07-31T15:13:13.148Z,101077.78
2022-07-31T15:15:39.603Z,101077.28
2022-07-31T15:18:06.071Z,101090.31
2022-07-31T15:20:34.271Z,101106.31
2022-07-31T15:23:01.880Z,101086.41
2022-07-31T15:25:28.377Z,101081.09
2022-07-31T15:27:54.778Z,101088.97
2022-07-31T15:30:21.606Z,101097.59
2022-07-31T15:32:48.109Z,101076.06
2022-07-31T15:35:14.634Z,101092.81
2022-07-31T15:37:43.930Z,101103.09
2022-07-31T15:40:12.871Z,101100.44
2022-07-31T15:42:41.619Z,100985.25
2022-07-31T15:45:10.718Z,101077.25
2022-07-31T15:47:38.334Z,101088.66
2022-07-31T15:50:06.365Z,101076.97
2022-07-31T15:52:32.928Z,101077.50
2022-07-31T15:54:59.469Z,101070.59
2022-07-31T15:57:25.869Z,101062.09
2022-07-31T15:59:54.413Z,101058.19
2022-07-31T16:02:22.500Z,101087.13
2022-07-31T16:04:52.886Z,101101.56
2022-07-31T16:08:29.515Z,101080.41
2022-07-31T16:10:16.652Z,101067.44
2022-07-31T16:12:48.446Z,101078.44
2022-07-31T16:15:16.762Z,101085.44
2022-07-31T16:17:44.171Z,101084.97
2022-07-31T16:20:25.367Z,101062.69
2022-07-31T16:23:00.865Z,101084.66
2022-07-31T16:25:32.032Z,101095.47
2022-07-31T16:28:00.966Z,101092.47
2022-07-31T16:30:27.451Z,101102.53
2022-07-31T16:32:54.644Z,101048.75
2022-07-31T16:35:21.261Z,101066.84
2022-07-31T16:37:52.519Z,101103.19
2022-07-31T16:40:30.047Z,101047.25
2022-07-31T16:43:47.206Z,101094.59
2022-07-31T16:45:55.326Z,101099.97
2022-07-31T16:48:22.131Z,101096.81
2022-07-31T16:50:53.342Z,101095.25
2022-07-31T16:54:11.135Z,101092.06
2022-07-31T16:56:11.893Z,101086.97
2022-07-31T16:58:38.375Z,101081.28
2022-07-31T17:01:05.181Z,101062.88
2022-07-31T17:04:00.443Z,101075.44
2022-07-31T17:06:36.647Z,101071.72
2022-07-31T17:09:15.346Z,101087.22
2022-07-31T17:11:48.484Z,101091.72
2022-07-31T17:14:16.617Z,101070.63
2022-07-31T17:16:47.208Z,101070.41
2022-07-31T17:19:15.855Z,101070.56
2022-07-31T17:21:44.422Z,101075.72
2022-07-31T17:24:13.443Z,101062.03
2022-07-31T17:26:43.581Z,101061.34
2022-07-31T17:29:09.953Z,101072.22
2022-07-31T17:31:36.288Z,101053.91
2022-07-31T17:34:07.240Z,100893.13
2022-07-31T17:36:35.810Z,101084.66
2022-07-31T17:39:02.246Z,101099.31
2022-07-31T17:41:28.749Z,101104.19
2022-07-31T17:43:55.133Z,101089.91
2022-07-31T17:46:35.021Z,101101.16
2022-07-31T17:49:09.020Z,101112.28
2022-07-31T17:51:35.491Z,101130.25
2022-07-31T17:54:02.159Z,101081.31
2022-07-31T17:56:29.258Z,101070.41
2022-07-31T17:59:03.571Z,101110.94
2022-07-31T18:01:30.299Z,101100.00
2022-07-31T18:03:57.743Z,101125.72
2022-07-31T18:06:24.171Z,101126.91
2022-07-31T18:08:50.620Z,101081.03
2022-07-31T18:11:17.160Z,101066.94
2022-07-31T18:13:48.750Z,101079.03
2022-07-31T18:16:18.692Z,101091.75
2022-07-31T18:18:45.297Z,101145.88
2022-07-31T18:21:12.031Z,101110.25
2022-07-31T18:23:43.643Z,101144.47
2022-07-31T18:26:14.353Z,101135.28
2022-07-31T18:28:40.816Z,101134.34
2022-07-31T18:31:24.792Z,101091.84
2022-07-31T18:33:53.796Z,101076.16
2022-07-31T18:36:21.146Z,101152.44
2022-07-31T18:38:47.879Z,101164.84
2022-07-31T18:41:14.607Z,101113.41
2022-07-31T18:43:40.991Z,101155.75
2022-07-31T18:46:07.390Z,101098.22
2022-07-31T18:48:34.280Z,101092.31
2022-07-31T18:51:04.756Z,101145.41
2022-07-31T18:53:31.946Z,101137.66
2022-07-31T18:55:58.395Z,100844.97
2022-07-31T18:58:24.802Z,101127.28
2022-07-31T19:00:54.977Z,101097.72
2022-07-31T19:03:22.065Z,101121.53
2022-07-31T19:05:50.021Z,101166.59
2022-07-31T19:08:16.441Z,101169.38
2022-07-31T19:10:42.909Z,101156.19
2022-07-31T19:13:09.385Z,101168.16
2022-07-31T19:15:46.215Z,101152.34
2022-07-31T19:18:12.705Z,101172.59
2022-07-31T19:21:00.215Z,101177.72
2022-07-31T19:23:27.472Z,101182.31
2022-07-31T19:26:03.709Z,101138.19
2022-07-31T19:28:35.033Z,101204.69
2022-07-31T19:31:01.690Z,101209.84
2022-07-31T19:33:28.204Z,101171.06
2022-07-31T19:36:00.688Z,101212.75
2022-07-31T19:38:28.755Z,101224.66
2022-07-31T19:40:55.266Z,101205.31
2022-07-31T19:43:21.994Z,101186.34
2022-07-31T19:46:00.426Z,101192.72
2022-07-31T19:48:36.394Z,101242.13
2022-07-31T19:51:03.105Z,101202.31
2022-07-31T19:53:30.148Z,101222.03
2022-07-31T19:55:56.595Z,101217.09
2022-07-31T19:58:23.035Z,101242.16
2022-07-31T20:00:49.544Z,101154.53
2022-07-31T20:03:16.057Z,101256.94
2022-07-31T20:05:42.609Z,101231.59
2022-07-31T20:08:10.215Z,101159.63
2022-07-31T20:10:36.761Z,101218.97
2022-07-31T20:13:03.214Z,101256.38
2022-07-31T20:15:52.214Z,101274.09
2022-07-31T20:18:26.839Z,101228.50
2022-07-31T20:21:05.202Z,101259.75
2022-07-31T20:23:34.036Z,101259.59
2022-07-31T20:26:00.719Z,101249.03
2022-07-31T20:28:27.147Z,101262.22
2022-07-31T20:30:53.736Z,101239.78
2022-07-31T20:33:20.203Z,101248.81
2022-07-31T20:35:49.193Z,101258.50
2022-07-31T20:38:22.530Z,101255.41
2022-07-31T20:40:53.329Z,101265.38
2022-07-31T20:43:26.021Z,101260.75
2022-07-31T20:45:53.930Z,101236.69
2022-07-31T20:48:31.434Z,101262.16
2022-07-31T20:50:59.358Z,101257.03
2022-07-31T20:53:26.031Z,101258.91
2022-07-31T20:55:53.427Z,101253.69
2022-07-31T20:58:21.881Z,101086.50
2022-07-31T21:00:50.104Z,101224.84
2022-07-31T21:03:17.253Z,101247.53
2022-07-31T21:05:44.680Z,101248.50
2022-07-31T21:08:11.852Z,101240.44
2022-07-31T21:10:39.038Z,101177.41
2022-07-31T21:13:05.485Z,101245.94
2022-07-31T21:15:44.144Z,101236.81
2022-07-31T21:18:15.545Z,101245.31
2022-07-31T21:20:49.913Z,101229.97
2022-07-31T21:23:23.028Z,101243.22
2022-07-31T21:25:54.277Z,101209.16
2022-07-31T21:28:21.756Z,101221.88
2022-07-31T21:30:48.635Z,101175.41
2022-07-31T21:33:15.327Z,101209.63
2022-07-31T21:35:42.090Z,101236.78
2022-07-31T21:38:12.587Z,101198.38
2022-07-31T21:40:40.848Z,101227.66
2022-07-31T21:43:08.370Z,101225.75
2022-07-31T21:45:50.714Z,101203.22
2022-07-31T21:48:23.758Z,101228.56
2022-07-31T21:50:51.110Z,101220.44
2022-07-31T21:53:17.528Z,101227.72
2022-07-31T21:55:44.056Z,101218.69
2022-07-31T21:58:11.033Z,101197.44
2022-07-31T22:00:38.108Z,101213.09
2022-07-31T22:03:05.531Z,101217.63
2022-07-31T22:05:51.491Z,101189.75
2022-07-31T22:08:18.416Z,101173.69
2022-07-31T22:10:44.843Z,101181.88
2022-07-31T22:13:11.433Z,101190.19
2022-07-31T22:15:51.609Z,101195.09
2022-07-31T22:18:26.188Z,101216.38
2022-07-31T22:20:53.334Z,101173.94
2022-07-31T22:23:19.958Z,101175.69
2022-07-31T22:25:48.854Z,101217.22
2022-07-31T22:28:18.817Z,101196.97
2022-07-31T22:30:45.633Z,101215.38
2022-07-31T22:33:12.270Z,101230.56
2022-07-31T22:35:40.529Z,101158.56
2022-07-31T22:38:07.838Z,101214.44
2022-07-31T22:40:34.469Z,101204.41
2022-07-31T22:43:02.609Z,101184.88
2022-07-31T22:45:30.062Z,101187.22
2022-07-31T22:47:57.345Z,101138.47
2022-07-31T22:50:24.265Z,101209.16
2022-07-31T22:52:51.881Z,101171.03
2022-07-31T22:55:18.344Z,101202.41
2022-07-31T22:57:45.021Z,101154.94
2022-07-31T23:00:13.493Z,101205.94
2022-07-31T23:02:41.060Z,101210.53
2022-07-31T23:05:08.509Z,101215.88
2022-07-31T23:07:34.882Z,101209.84
2022-07-31T23:10:01.311Z,101196.44
2022-07-31T23:12:28.511Z,101202.13
2022-07-31T23:14:55.964Z,101211.66
2022-07-31T23:17:23.597Z,101090.50
2022-07-31T23:19:53.878Z,101217.41
2022-07-31T23:22:20.828Z,101218.97
2022-07-31T23:25:05.143Z,101170.47
2022-07-31T23:27:33.124Z,101219.91
2022-07-31T23:30:00.077Z,101181.13
2022-07-31T23:32:28.026Z,101218.09
2022-07-31T23:34:54.521Z,101201.75
2022-07-31T23:37:20.959Z,101173.66
2022-07-31T23:39:47.566Z,101208.44
2022-07-31T23:42:32.689Z,101209.78
2022-07-31T23:44:59.178Z,101163.13
2022-07-31T23:47:44.409Z,101173.28
2022-07-31T23:50:12.114Z,101204.34
2022-07-31T23:52:38.542Z,101164.25
2022-07-31T23:55:05.566Z,101187.94
2022-07-31T23:57:34.714Z,101196.72
